Time;durP1;ratioP1;P1;durP2;ratioP2;P2;SDS_P1;SDS_P2;PMS_P1;PMS_P2;Temp;Humidity;BMP_temperature;BMP_pressure;BME280_temperature;BME280_humidity;BME280_pressure;Samples;Min_cycle;Max_cycle;Signal;HPM_P1;HPM_P2
2021/10/22 00:01:45;;;;;;;12.65;3.40;;;;;;;9.26;76.13;101400.22;4993990;28;20400;-45
2021/10/22 00:04:12;;;;;;;12.27;3.05;;;;;;;9.23;76.50;101404.25;4993347;28;20197;-45
2021/10/22 00:06:40;;;;;;;7.68;2.97;;;;;;;9.16;76.46;101403.56;4993650;28;20398;-43
2021/10/22 00:09:11;;;;;;;9.18;3.05;;;;;;;9.09;76.66;101402.91;4993116;28;20449;-46
2021/10/22 00:11:43;;;;;;;10.43;2.67;;;;;;;9.07;77.38;101399.63;4993083;28;20486;-46
2021/10/22 00:14:13;;;;;;;11.35;3.55;;;;;;;9.08;77.11;101398.56;4993527;28;20053;-46
2021/10/22 00:16:41;;;;;;;9.63;3.00;;;;;;;9.06;77.53;101397.97;4992847;28;20050;-42
2021/10/22 00:19:09;;;;;;;9.18;3.00;;;;;;;9.04;77.57;101394.66;4993149;28;20038;-45
2021/10/22 00:21:37;;;;;;;8.60;2.72;;;;;;;9.05;77.54;101396.31;4992965;28;20493;-46
2021/10/22 00:24:06;;;;;;;9.65;2.90;;;;;;;9.04;76.99;101400.09;4993189;28;20097;-46
2021/10/22 00:26:34;;;;;;;7.70;2.42;;;;;;;9.01;77.16;101400.59;4992598;28;20035;-45
2021/10/22 00:29:02;;;;;;;11.15;3.72;;;;;;;9.00;77.53;101398.94;4993221;28;20061;-47
2021/10/22 00:31:29;;;;;;;8.98;2.50;;;;;;;8.98;77.31;101393.75;4993330;28;20413;-46
2021/10/22 00:33:57;;;;;;;8.63;2.85;;;;;;;8.93;77.29;101405.34;4992581;28;20101;-44
2021/10/22 00:36:25;;;;;;;6.82;2.80;;;;;;;8.93;77.29;101401.81;4992814;28;20054;-46
2021/10/22 00:38:52;;;;;;;8.93;2.72;;;;;;;8.91;76.82;101407.47;4992560;28;20041;-46
2021/10/22 00:41:21;;;;;;;9.77;2.95;;;;;;;8.91;77.46;101404.75;4992857;28;20042;-44
2021/10/22 00:43:50;;;;;;;10.13;3.38;;;;;;;8.91;77.08;101406.66;4993005;28;20957;-45
2021/10/22 00:46:18;;;;;;;11.93;3.25;;;;;;;8.90;76.58;101410.47;4992344;28;20939;-45
2021/10/22 00:48:45;;;;;;;12.98;3.15;;;;;;;8.86;77.29;101398.41;4993015;28;20046;-48
2021/10/22 00:51:17;;;;;;;9.68;3.17;;;;;;;8.82;76.25;101398.06;4992838;28;20046;-48
2021/10/22 00:53:45;;;;;;;13.63;2.75;;;;;;;8.81;76.79;101391.00;5007462;28;20042;-47
2021/10/22 00:56:13;;;;;;;11.32;3.10;;;;;;;8.74;76.37;101390.31;4985893;28;20105;-46
2021/10/22 00:58:41;;;;;;;10.30;3.08;;;;;;;8.75;77.00;101391.94;4992935;28;20399;-46
2021/10/22 01:01:09;;;;;;;8.10;2.80;;;;;;;8.76;75.84;101388.16;4992207;28;20042;-44
2021/10/22 01:03:40;;;;;;;10.10;3.35;;;;;;;8.76;75.67;101393.59;4992584;28;20069;-47
2021/10/22 01:06:09;;;;;;;10.18;3.15;;;;;;;8.78;75.77;101386.03;4990654;28;20038;-46
2021/10/22 01:08:36;;;;;;;12.75;3.50;;;;;;;8.78;75.18;101386.03;4991977;28;20061;-46
2021/10/22 01:11:04;;;;;;;9.98;3.20;;;;;;;8.83;75.61;101388.03;4991840;28;20109;-44
2021/10/22 01:13:32;;;;;;;11.23;3.05;;;;;;;8.78;75.77;101396.91;4992455;28;20042;-47
2021/10/22 01:15:59;;;;;;;10.73;3.28;;;;;;;8.79;76.02;101393.13;4991394;28;20093;-46
2021/10/22 01:18:29;;;;;;;12.43;3.45;;;;;;;8.77;75.61;101389.81;4991988;28;20049;-45
2021/10/22 01:21:02;;;;;;;14.35;4.05;;;;;;;8.72;75.54;101387.00;4992157;28;20048;-46
2021/10/22 01:23:30;;;;;;;11.38;3.60;;;;;;;8.71;75.52;101382.66;4979051;28;20037;-46
2021/10/22 01:25:58;;;;;;;14.88;3.80;;;;;;;8.71;75.43;101380.75;4992087;28;20046;-45
2021/10/22 01:28:27;;;;;;;11.95;3.58;;;;;;;8.66;75.04;101382.50;4991805;28;20050;-47
2021/10/22 01:30:56;;;;;;;12.63;3.40;;;;;;;8.65;75.00;101378.16;4992125;28;20533;-45
2021/10/22 01:33:24;;;;;;;12.77;3.90;;;;;;;8.66;75.09;101371.66;4992681;28;20228;-45
2021/10/22 01:35:52;;;;;;;11.75;3.63;;;;;;;8.64;75.36;101368.38;4991637;28;20054;-47
2021/10/22 01:38:22;;;;;;;11.75;3.50;;;;;;;8.65;75.23;101370.00;4992012;28;20052;-47
2021/10/22 01:40:55;;;;;;;11.68;4.03;;;;;;;8.68;75.06;101369.53;4992505;28;20042;-45
2021/10/22 01:43:24;;;;;;;11.63;3.00;;;;;;;8.64;75.21;101368.38;4992378;28;20053;-47
2021/10/22 01:45:52;;;;;;;11.10;3.35;;;;;;;8.65;74.94;101370.00;4991469;28;20057;-44
2021/10/22 01:48:19;;;;;;;12.43;3.78;;;;;;;8.63;75.03;101369.44;5006766;28;20050;-46
2021/10/22 01:50:47;;;;;;;13.73;3.47;;;;;;;8.61;74.67;101368.84;4990446;28;20038;-47
2021/10/22 01:53:17;;;;;;;10.52;3.95;;;;;;;8.61;75.20;101363.41;4991709;28;20053;-46
2021/10/22 01:55:45;;;;;;;12.80;3.70;;;;;;;8.53;74.91;101368.16;4992032;28;20054;-45
2021/10/22 01:58:12;;;;;;;12.43;3.67;;;;;;;8.51;74.90;101362.16;5007441;28;20042;-45
2021/10/22 02:00:40;;;;;;;11.50;4.05;;;;;;;8.54;74.59;101369.00;4991673;28;20034;-44
2021/10/22 02:03:08;;;;;;;12.15;3.65;;;;;;;8.55;74.25;101380.69;4992120;28;20038;-46
2021/10/22 02:05:36;;;;;;;12.23;3.90;;;;;;;8.53;74.75;101373.59;4991512;28;20498;-46
2021/10/22 02:08:03;;;;;;;14.10;4.38;;;;;;;8.57;74.46;101378.56;4988702;28;20042;-45
2021/10/22 02:10:31;;;;;;;14.00;4.28;;;;;;;8.52;73.90;101371.94;4983697;28;20046;-45
2021/10/22 02:12:59;;;;;;;11.57;4.20;;;;;;;8.46;74.36;101378.31;4991827;28;20445;-46
2021/10/22 02:15:27;;;;;;;13.57;4.85;;;;;;;8.45;74.00;101376.69;4991559;28;20108;-47
2021/10/22 02:17:55;;;;;;;19.30;5.07;;;;;;;8.44;74.09;101371.47;4991358;28;20045;-46
2021/10/22 02:20:22;;;;;;;11.90;4.22;;;;;;;8.43;73.83;101365.22;4991625;28;20501;-46
2021/10/22 02:22:50;;;;;;;12.95;4.53;;;;;;;8.41;73.26;101372.78;4986166;28;20502;-45
2021/10/22 02:25:19;;;;;;;13.20;4.20;;;;;;;8.38;73.86;101373.25;4995284;28;20049;-47
2021/10/22 02:27:47;;;;;;;15.40;5.00;;;;;;;8.40;73.67;101375.75;4995308;28;20046;-46
2021/10/22 02:30:22;;;;;;;12.45;4.30;;;;;;;8.43;73.42;101372.56;4995555;28;20066;-47
2021/10/22 02:32:50;;;;;;;12.45;4.28;;;;;;;8.41;73.98;101375.50;4995449;28;20042;-44
2021/10/22 02:35:17;;;;;;;15.18;4.00;;;;;;;8.36;73.85;101380.81;4994971;28;20054;-47
2021/10/22 02:37:46;;;;;;;15.20;4.20;;;;;;;8.32;73.86;101371.47;4994514;28;20112;-44
2021/10/22 02:40:14;;;;;;;12.95;4.45;;;;;;;8.31;73.61;101369.84;4995119;28;20080;-46
2021/10/22 02:42:42;;;;;;;11.90;4.15;;;;;;;8.31;74.09;101361.69;4995463;28;20042;-46
2021/10/22 02:45:10;;;;;;;10.98;3.88;;;;;;;8.27;73.11;101352.38;4994510;28;20034;-47
2021/10/22 02:47:37;;;;;;;13.60;4.18;;;;;;;8.24;74.31;101344.72;4995055;28;20034;-44
2021/10/22 02:50:05;;;;;;;13.25;4.15;;;;;;;8.25;74.31;101349.06;4994532;28;20061;-45
2021/10/22 02:52:33;;;;;;;20.05;4.45;;;;;;;8.27;73.37;101349.66;4995105;28;20046;-44
2021/10/22 02:55:01;;;;;;;10.82;4.15;;;;;;;8.27;73.35;101338.78;4993720;28;20493;-47
2021/10/22 02:57:28;;;;;;;14.02;4.70;;;;;;;8.18;73.18;101337.50;4994684;28;20104;-47
2021/10/22 02:59:56;;;;;;;14.95;4.25;;;;;;;8.15;73.94;101338.81;4995201;28;20094;-45
2021/10/22 03:02:23;;;;;;;15.93;4.30;;;;;;;8.18;73.74;101332.09;4994623;28;20803;-48
2021/10/22 03:04:51;;;;;;;12.80;4.80;;;;;;;8.16;73.52;101335.06;4994078;28;20050;-48
2021/10/22 03:07:19;;;;;;;16.23;4.80;;;;;;;8.18;73.91;101343.78;4994574;28;20038;-47
2021/10/22 03:09:46;;;;;;;12.32;4.07;;;;;;;8.16;73.87;101335.06;4994486;28;20057;-46
2021/10/22 03:12:14;;;;;;;11.73;4.47;;;;;;;8.17;73.57;101342.13;4994796;28;20089;-47
2021/10/22 03:14:41;;;;;;;10.65;4.00;;;;;;;8.18;73.42;101332.09;4994647;28;20106;-44
2021/10/22 03:17:09;;;;;;;13.73;4.03;;;;;;;8.18;73.39;101327.50;4993899;28;20057;-47
2021/10/22 03:19:37;;;;;;;13.18;4.32;;;;;;;8.19;73.17;101328.31;4991564;28;20034;-47
2021/10/22 03:22:04;;;;;;;13.30;4.13;;;;;;;8.19;72.89;101333.75;4994768;28;20101;-45
2021/10/22 03:24:32;;;;;;;17.33;4.68;;;;;;;8.17;73.25;101342.13;4994270;28;20042;-47
2021/10/22 03:26:59;;;;;;;15.25;4.40;;;;;;;8.16;73.11;101331.53;4994635;28;20510;-47
2021/10/22 03:29:27;;;;;;;11.48;3.90;;;;;;;8.15;72.32;101335.28;4994091;28;20050;-47
2021/10/22 03:31:54;;;;;;;16.73;4.25;;;;;;;8.14;72.73;101331.75;4993949;28;20421;-47
2021/10/22 03:34:22;;;;;;;12.55;3.90;;;;;;;8.13;73.02;101329.28;4992901;28;20046;-47
2021/10/22 03:36:49;;;;;;;13.20;3.95;;;;;;;8.12;72.37;101333.88;4994635;28;20093;-45
2021/10/22 03:39:17;;;;;;;13.52;3.83;;;;;;;8.12;72.98;101328.44;4993780;28;20046;-47
2021/10/22 03:41:44;;;;;;;12.30;3.72;;;;;;;8.10;72.61;101339.56;4980721;28;20043;-47
2021/10/22 03:44:12;;;;;;;11.48;3.33;;;;;;;8.13;72.97;101330.13;4994048;28;20411;-46
2021/10/22 03:46:40;;;;;;;13.60;4.47;;;;;;;8.08;73.27;101332.69;4993490;28;20096;-46
2021/10/22 03:49:07;;;;;;;17.23;4.90;;;;;;;8.08;72.82;101328.13;5008614;28;20073;-48
2021/10/22 03:51:35;;;;;;;13.02;4.38;;;;;;;8.08;72.72;101317.25;4993578;28;20056;-46
2021/10/22 03:54:03;;;;;;;13.07;4.00;;;;;;;8.11;73.56;101324.91;4993701;28;20401;-48
2021/10/22 03:56:30;;;;;;;14.93;4.13;;;;;;;8.08;73.08;101313.69;4993655;28;20046;-47
2021/10/22 03:58:58;;;;;;;12.32;3.63;;;;;;;8.03;73.02;101313.59;4994174;28;20039;-47
2021/10/22 04:01:26;;;;;;;15.73;4.30;;;;;;;8.04;72.71;101313.38;4993270;28;20050;-47
2021/10/22 04:03:53;;;;;;;12.07;4.13;;;;;;;8.06;73.58;101308.53;4993064;28;20038;-49
2021/10/22 04:06:21;;;;;;;13.73;4.05;;;;;;;8.03;73.50;101309.00;4994088;28;20054;-50
2021/10/22 04:08:49;;;;;;;12.73;4.43;;;;;;;8.00;72.66;101306.75;4993231;28;20062;-47
2021/10/22 04:11:16;;;;;;;12.35;3.85;;;;;;;8.02;73.67;101310.06;4993368;28;20046;-47
2021/10/22 04:13:44;;;;;;;15.32;3.65;;;;;;;8.00;72.56;101323.03;4993438;28;20046;-44
2021/10/22 04:16:11;;;;;;;13.48;4.00;;;;;;;7.99;73.26;101323.28;4992986;28;20042;-44
2021/10/22 04:18:39;;;;;;;11.63;4.40;;;;;;;7.99;73.13;101329.53;4992978;28;20049;-41
2021/10/22 04:21:07;;;;;;;11.13;3.85;;;;;;;7.94;73.34;101329.44;4993278;28;20035;-43
2021/10/22 04:23:34;;;;;;;12.73;4.05;;;;;;;7.93;73.62;101326.94;4992934;28;20038;-44
2021/10/22 04:26:02;;;;;;;11.63;3.63;;;;;;;7.90;72.70;101333.69;4993330;28;20148;-43
2021/10/22 04:28:29;;;;;;;13.00;4.07;;;;;;;7.95;73.85;101333.78;4993455;28;20050;-44
2021/10/22 04:30:57;;;;;;;12.07;4.30;;;;;;;7.95;72.94;101339.22;4992374;28;20039;-42
2021/10/22 04:33:25;;;;;;;9.40;3.97;;;;;;;7.95;73.15;101339.22;4992263;28;20096;-44
2021/10/22 04:35:53;;;;;;;13.32;3.90;;;;;;;7.98;73.23;101338.72;4992796;28;20046;-43
2021/10/22 04:40:52;;;;;;;11.05;3.53;;;;;;;7.97;73.05;101339.81;4992837;28;20061;-43
2021/10/22 04:43:20;;;;;;;13.35;4.00;;;;;;;7.96;73.80;101346.31;4993008;28;20054;-44
2021/10/22 04:45:50;;;;;;;12.85;3.72;;;;;;;7.94;73.97;101351.16;4991839;28;20057;-44
2021/10/22 04:48:18;;;;;;;13.32;4.03;;;;;;;7.99;73.86;101348.53;4992390;28;20049;-42
2021/10/22 04:50:50;;;;;;;17.10;3.80;;;;;;;7.98;73.78;101355.00;4992621;28;20513;-42
2021/10/22 04:53:22;;;;;;;13.05;3.75;;;;;;;7.94;73.64;101347.56;4992282;28;20053;-42
2021/10/22 04:55:50;;;;;;;10.57;3.78;;;;;;;7.93;73.94;101349.47;4992817;28;20049;-44
2021/10/22 04:58:18;;;;;;;18.15;4.30;;;;;;;7.91;73.29;101359.72;4992276;28;20053;-44
2021/10/22 05:01:00;;;;;;;11.48;3.72;;;;;;;7.94;73.74;101359.28;4992274;28;20061;-44
2021/10/22 05:03:29;;;;;;;12.70;4.47;;;;;;;7.86;73.62;101368.63;4991794;28;20043;-44
2021/10/22 05:05:59;;;;;;;13.57;4.15;;;;;;;7.80;73.39;101374.16;4982962;28;20424;-44
2021/10/22 05:08:27;;;;;;;12.82;3.67;;;;;;;7.77;73.97;101380.03;4991948;28;20034;-44
2021/10/22 05:10:56;;;;;;;16.77;4.85;;;;;;;7.75;74.33;101384.88;4992518;28;20046;-44
2021/10/22 05:13:23;;;;;;;14.38;4.10;;;;;;;7.67;74.78;101389.59;4992496;28;20421;-45
2021/10/22 05:15:51;;;;;;;16.17;4.38;;;;;;;7.69;74.75;101383.91;4991841;28;20122;-43
2021/10/22 05:18:19;;;;;;;12.65;3.90;;;;;;;7.88;77.42;101382.75;4992523;28;20052;-43
2021/10/22 05:20:47;;;;;;;13.27;3.92;;;;;;;8.00;76.71;101384.63;4991827;28;20416;-43
2021/10/22 05:23:16;;;;;;;11.38;3.78;;;;;;;7.99;76.33;101377.56;4992056;28;20043;-44
2021/10/22 05:25:44;;;;;;;14.27;3.92;;;;;;;8.04;77.96;101370.34;4991820;28;20096;-43
2021/10/22 05:28:12;;;;;;;10.30;3.80;;;;;;;8.03;77.20;101374.16;4992271;28;20129;-43
2021/10/22 05:30:40;;;;;;;12.95;4.07;;;;;;;8.01;76.48;101381.69;4991590;28;20461;-45
2021/10/22 05:33:11;;;;;;;18.77;4.60;;;;;;;8.03;77.18;101367.88;4991816;28;20117;-44
2021/10/22 05:35:40;;;;;;;12.13;4.32;;;;;;;7.94;76.81;101375.56;4300629;28;10000628;-44
2021/10/22 05:38:07;;;;;;;12.38;3.72;;;;;;;7.98;77.38;101365.03;4989456;28;20046;-45
2021/10/22 05:40:35;;;;;;;17.92;4.32;;;;;;;7.94;77.40;101361.16;4990054;28;20046;-44
2021/10/22 05:43:04;;;;;;;12.95;3.80;;;;;;;8.05;80.50;101350.28;4989650;28;20050;-45
2021/10/22 05:45:31;;;;;;;9.10;3.13;;;;;;;8.04;78.42;101345.94;4989171;28;20053;-46
2021/10/22 05:47:59;;;;;;;12.45;3.40;;;;;;;7.98;79.25;101333.31;4989257;28;20516;-43
2021/10/22 05:50:27;;;;;;;12.30;4.03;;;;;;;8.07;79.95;101326.44;4989594;28;20054;-45
2021/10/22 05:52:54;;;;;;;14.40;4.25;;;;;;;8.02;79.95;101320.91;4987929;28;20043;-44
2021/10/22 05:55:22;;;;;;;12.75;4.03;;;;;;;8.02;80.36;101322.81;4980771;28;20441;-46
2021/10/22 05:57:49;;;;;;;10.18;3.15;;;;;;;8.05;81.38;101323.16;4992050;28;20529;-46
2021/10/22 06:00:17;;;;;;;14.38;3.80;;;;;;;8.04;79.01;101316.09;4993198;28;20042;-44
2021/10/22 06:02:45;;;;;;;14.98;4.15;;;;;;;8.01;78.13;101323.84;4993704;28;20371;-46
2021/10/22 06:05:12;;;;;;;12.15;4.03;;;;;;;7.96;78.18;101319.16;4993586;28;20035;-43
2021/10/22 06:07:40;;;;;;;10.60;3.50;;;;;;;8.03;81.19;101303.59;4992982;28;20520;-45
2021/10/22 06:10:08;;;;;;;14.60;3.85;;;;;;;8.14;80.63;101304.63;4993656;28;20501;-45
2021/10/22 06:12:35;;;;;;;15.38;3.88;;;;;;;7.99;79.31;101313.25;4992500;28;20050;-43
2021/10/22 06:15:04;;;;;;;8.93;3.05;;;;;;;7.96;81.03;101299.34;4993227;28;20100;-45
2021/10/22 06:17:34;;;;;;;12.52;3.95;;;;;;;7.92;80.39;101296.28;4993395;28;20065;-45
2021/10/22 06:20:10;;;;;;;14.43;3.90;;;;;;;7.88;79.98;101295.91;4992333;28;20042;-44
2021/10/22 06:25:24;;;;;;;13.98;3.45;;;;;;;8.15;86.49;101297.28;4988221;28;20046;-48
2021/10/22 06:27:52;;;;;;;12.32;3.75;;;;;;;8.00;81.88;101305.94;4993481;28;20041;-45
2021/10/22 06:30:20;;;;;;;12.82;3.90;;;;;;;7.93;81.00;101307.97;4993061;28;20058;-45
2021/10/22 06:32:48;;;;;;;12.00;3.97;;;;;;;7.90;80.91;101312.78;4989323;28;20042;-43
2021/10/22 06:35:15;;;;;;;15.98;4.38;;;;;;;7.93;81.45;101322.34;4992504;28;20045;-45
2021/10/22 06:37:43;;;;;;;13.25;3.95;;;;;;;7.97;81.34;101307.25;4992333;28;20062;-44
2021/10/22 06:40:11;;;;;;;12.30;4.05;;;;;;;7.95;81.88;101309.38;4992278;28;20054;-46
2021/10/22 06:42:39;;;;;;;18.13;3.95;;;;;;;7.95;81.14;101317.50;4993002;28;20038;-45
2021/10/22 06:45:07;;;;;;;14.50;4.00;;;;;;;8.00;81.60;101312.19;4992402;28;20053;-46
2021/10/22 06:47:37;;;;;;;14.15;4.07;;;;;;;8.00;81.99;101325.75;4992496;28;20043;-45
2021/10/22 06:50:05;;;;;;;13.95;4.00;;;;;;;7.92;79.65;101323.41;4990986;28;20046;-45
2021/10/22 06:52:33;;;;;;;19.30;4.38;;;;;;;7.83;78.96;101338.41;4987696;28;20049;-45
2021/10/22 06:55:01;;;;;;;12.18;4.32;;;;;;;7.77;79.83;101323.06;4989323;28;20038;-45
2021/10/22 06:57:29;;;;;;;16.73;4.22;;;;;;;7.81;80.46;101325.06;4991897;28;20035;-42
2021/10/22 06:59:56;;;;;;;13.73;4.50;;;;;;;7.82;80.94;101331.34;4992007;28;20054;-47
2021/10/22 07:02:24;;;;;;;17.85;4.28;;;;;;;7.87;81.43;101332.25;4992322;28;20046;-46
2021/10/22 07:04:52;;;;;;;14.32;4.20;;;;;;;7.94;81.34;101337.56;4992494;28;20049;-44
2021/10/22 07:07:21;;;;;;;12.80;3.70;;;;;;;7.99;80.68;101345.00;4991092;28;20053;-43
2021/10/22 07:09:50;;;;;;;14.82;4.35;;;;;;;7.97;80.89;101342.53;4993312;28;20046;-43
2021/10/22 07:12:21;;;;;;;13.73;4.18;;;;;;;8.01;81.88;101332.84;4994082;28;20047;-45
2021/10/22 07:14:53;;;;;;;17.60;4.28;;;;;;;8.02;80.87;101336.38;4994747;28;20457;-47
2021/10/22 07:17:20;;;;;;;12.55;3.70;;;;;;;7.92;80.75;101322.59;4993897;28;20101;-44
2021/10/22 07:19:48;;;;;;;14.07;4.13;;;;;;;7.85;80.85;101336.28;4994319;28;20417;-47
2021/10/22 07:22:17;;;;;;;13.20;4.03;;;;;;;7.81;82.14;101343.22;4993346;28;20047;-43
2021/10/22 07:24:44;;;;;;;14.43;4.03;;;;;;;7.80;82.08;101347.03;4993783;28;20463;-43
2021/10/22 07:27:12;;;;;;;13.77;4.22;;;;;;;7.79;81.93;101345.34;4991395;28;20457;-45
2021/10/22 07:29:39;;;;;;;15.07;4.55;;;;;;;7.86;82.71;101340.63;4993713;28;20046;-42
2021/10/22 07:32:07;;;;;;;13.13;3.90;;;;;;;7.85;82.33;101339.81;4993466;28;20497;-46
2021/10/22 07:34:34;;;;;;;13.40;3.80;;;;;;;7.88;82.60;101352.06;4993390;28;20049;-44
2021/10/22 07:37:02;;;;;;;16.80;4.13;;;;;;;7.87;83.49;101348.53;4993664;28;20057;-45
2021/10/22 07:39:30;;;;;;;18.48;4.30;;;;;;;7.92;83.33;101349.72;4993636;28;20058;-45
2021/10/22 07:42:10;;;;;;;13.90;4.22;;;;;;;8.02;83.57;101355.38;4993197;28;20038;-43
2021/10/22 07:44:54;;;;;;;21.45;4.90;;;;;;;8.17;83.42;101352.97;4990436;28;20062;-44
2021/10/22 07:47:23;;;;;;;16.77;5.55;;;;;;;8.29;85.49;101355.69;4993105;28;20034;-43
2021/10/22 07:49:54;;;;;;;14.50;4.10;;;;;;;8.28;83.71;101354.03;4990484;28;20080;-45
2021/10/22 07:52:25;;;;;;;15.93;4.60;;;;;;;8.32;83.43;101364.19;4993239;28;20520;-44
2021/10/22 07:54:53;;;;;;;16.55;5.00;;;;;;;8.25;82.34;101370.78;4992730;28;20034;-42
2021/10/22 07:57:23;;;;;;;14.68;4.10;;;;;;;8.21;81.91;101372.34;4988816;28;20118;-45
2021/10/22 07:59:51;;;;;;;13.82;4.00;;;;;;;8.17;82.14;101373.88;4999948;28;20480;-47
2021/10/22 08:02:20;;;;;;;19.08;5.43;;;;;;;8.31;83.67;101386.13;4996225;28;20045;-44
2021/10/22 08:04:51;;;;;;;14.93;4.30;;;;;;;8.33;81.78;101373.16;4994577;28;20058;-44
2021/10/22 08:07:30;;;;;;;15.57;4.95;;;;;;;8.39;82.35;101380.31;4995627;28;20378;-43
2021/10/22 08:09:59;;;;;;;15.75;4.47;;;;;;;8.39;83.16;101380.31;4994344;28;20046;-44
2021/10/22 08:12:28;;;;;;;16.17;4.80;;;;;;;8.56;83.40;101385.03;5002577;28;20045;-44
2021/10/22 08:14:56;;;;;;;12.45;4.28;;;;;;;8.47;81.83;101382.72;4996369;28;20504;-45
2021/10/22 08:17:24;;;;;;;17.02;5.28;;;;;;;8.60;85.90;101391.66;5004270;28;20046;-44
2021/10/22 08:20:00;;;;;;;13.25;4.13;;;;;;;8.62;84.13;101390.34;4998704;28;20696;-44
2021/10/22 08:22:32;;;;;;;12.10;3.60;;;;;;;8.52;81.11;101390.97;5003327;28;20064;-44
2021/10/22 08:25:04;;;;;;;15.07;4.45;;;;;;;8.47;82.29;101400.91;4998059;28;20114;-46
2021/10/22 08:27:35;;;;;;;15.02;4.00;;;;;;;8.43;82.19;101384.25;4994212;28;20034;-46
2021/10/22 08:30:08;;;;;;;15.70;4.55;;;;;;;8.40;82.02;101394.78;4997651;28;20058;-45
2021/10/22 08:32:37;;;;;;;14.68;4.07;;;;;;;8.45;82.48;101403.84;4992180;28;20070;-44
2021/10/22 08:35:05;;;;;;;15.50;4.47;;;;;;;8.52;83.69;101374.66;4993311;28;20045;-45
2021/10/22 08:37:34;;;;;;;16.55;5.00;;;;;;;8.68;84.41;101374.94;4992002;28;20501;-45
2021/10/22 08:40:04;;;;;;;14.85;4.93;;;;;;;8.69;84.06;101382.06;4992251;28;20085;-44
2021/10/22 08:42:31;;;;;;;13.40;4.10;;;;;;;8.59;82.54;101388.13;4992723;28;20039;-45
2021/10/22 08:44:59;;;;;;;15.18;5.03;;;;;;;8.62;83.66;101397.66;4992721;28;20042;-46
2021/10/22 08:47:28;;;;;;;14.65;3.80;;;;;;;8.62;82.46;101405.81;4992639;28;20046;-42
2021/10/22 08:50:07;;;;;;;12.82;4.10;;;;;;;8.59;82.22;101398.97;4992262;28;20053;-44
2021/10/22 08:52:35;;;;;;;18.02;5.18;;;;;;;8.63;82.53;101402.84;4991284;28;20039;-48
2021/10/22 08:55:07;;;;;;;13.57;4.15;;;;;;;8.66;82.07;101390.66;4992100;28;20043;-47
2021/10/22 08:57:38;;;;;;;14.20;4.60;;;;;;;8.73;81.95;101394.06;4991770;28;20041;-44
2021/10/22 09:00:07;;;;;;;15.25;4.35;;;;;;;8.70;82.75;101379.06;4992111;28;20053;-44
2021/10/22 09:02:37;;;;;;;17.08;5.15;;;;;;;8.89;90.18;101385.16;4991645;28;20533;-47
2021/10/22 09:05:20;;;;;;;13.35;4.10;;;;;;;8.95;84.65;101386.09;4991452;28;20074;-45
2021/10/22 09:07:54;;;;;;;13.48;3.80;;;;;;;8.82;81.65;101392.63;4991709;28;20055;-44
2021/10/22 09:10:26;;;;;;;11.82;3.70;;;;;;;8.75;81.94;101386.50;4991800;28;20053;-46
2021/10/22 09:12:57;;;;;;;16.48;4.03;;;;;;;8.72;82.41;101384.28;4991840;28;20378;-44
2021/10/22 09:15:32;;;;;;;14.00;4.22;;;;;;;8.71;82.09;101391.63;4989198;28;20453;-45
2021/10/22 09:18:05;;;;;;;13.07;4.50;;;;;;;8.71;82.00;101382.66;4990621;28;20054;-45
2021/10/22 09:20:33;;;;;;;19.15;4.40;;;;;;;8.82;82.20;101408.09;4991190;28;20038;-44
2021/10/22 09:23:02;;;;;;;15.48;4.35;;;;;;;8.96;82.42;101404.84;4991901;28;20042;-45
2021/10/22 09:25:31;;;;;;;13.02;3.90;;;;;;;9.03;81.29;101403.91;4991953;28;20050;-47
2021/10/22 09:28:01;;;;;;;12.70;4.22;;;;;;;9.02;82.54;101413.09;4991936;28;20031;-47
2021/10/22 09:30:41;;;;;;;11.90;4.28;;;;;;;8.99;81.42;101400.00;4991795;28;20042;-46
2021/10/22 09:33:12;;;;;;;13.43;4.15;;;;;;;9.08;87.81;101395.84;4991749;28;20042;-44
2021/10/22 09:35:43;;;;;;;12.35;3.85;;;;;;;9.21;87.54;101394.69;4991650;28;20057;-46
2021/10/22 09:38:25;;;;;;;13.15;3.95;;;;;;;9.20;81.74;101401.22;4991205;28;20120;-45
2021/10/22 09:41:07;;;;;;;12.95;3.58;;;;;;;9.13;81.18;101406.78;4992171;28;20437;-48
2021/10/22 09:43:37;;;;;;;13.68;3.60;;;;;;;9.08;80.26;101406.72;4979110;28;20042;-43
2021/10/22 09:46:21;;;;;;;10.75;3.75;;;;;;;9.00;80.22;101397.06;4991361;28;20042;-44
2021/10/22 09:48:58;;;;;;;13.75;4.03;;;;;;;9.04;80.81;101398.19;4980436;28;20042;-46
2021/10/22 09:51:28;;;;;;;16.23;3.72;;;;;;;9.04;80.62;101408.25;4991299;28;20042;-43
2021/10/22 09:54:06;;;;;;;11.77;3.72;;;;;;;9.08;80.14;101412.13;4990744;28;20121;-46
2021/10/22 09:56:35;;;;;;;10.88;3.97;;;;;;;9.22;81.97;101413.50;4991317;28;20046;-45
2021/10/22 09:59:06;;;;;;;11.88;3.45;;;;;;;9.26;80.50;101408.38;4992099;28;20044;-47
2021/10/22 10:01:39;;;;;;;12.77;4.10;;;;;;;9.33;82.63;101399.00;4991593;28;20402;-46
2021/10/22 10:04:12;;;;;;;12.98;3.55;;;;;;;9.47;82.24;101415.00;4987697;28;20568;-45
2021/10/22 10:07:00;;;;;;;10.55;3.55;;;;;;;9.44;82.15;101415.50;4990651;28;20038;-44
2021/10/22 10:09:28;;;;;;;12.02;3.22;;;;;;;9.46;82.58;101419.63;4991693;28;20054;-43
2021/10/22 10:12:04;;;;;;;11.80;3.17;;;;;;;9.56;83.72;101413.53;5005879;28;20046;-44
2021/10/22 10:14:32;;;;;;;12.50;3.78;;;;;;;9.62;82.32;101428.88;4989673;28;20034;-45
2021/10/22 10:17:02;;;;;;;11.95;3.35;;;;;;;9.58;81.80;101433.97;4990506;28;20077;-51
2021/10/22 10:19:34;;;;;;;10.77;3.45;;;;;;;9.67;82.17;101436.28;4987499;28;20042;-45
2021/10/22 10:22:05;;;;;;;10.32;3.50;;;;;;;9.60;81.07;101431.03;4993696;28;20034;-45
2021/10/22 10:24:35;;;;;;;11.85;3.30;;;;;;;9.65;82.13;101435.72;4990616;28;20033;-44
2021/10/22 10:27:14;;;;;;;10.55;3.00;;;;;;;9.61;83.91;101443.53;4991651;28;20515;-44
2021/10/22 10:29:45;;;;;;;12.13;3.10;;;;;;;9.73;83.67;101446.19;4990614;28;20046;-45
2021/10/22 10:32:22;;;;;;;12.73;3.60;;;;;;;9.70;84.04;101442.06;4990363;28;20089;-47
2021/10/22 10:34:57;;;;;;;16.15;3.80;;;;;;;9.61;84.00;101457.16;4989061;28;20042;-43
2021/10/22 10:37:26;;;;;;;13.25;3.35;;;;;;;9.53;84.46;101446.69;4990816;28;20051;-43
2021/10/22 10:39:59;;;;;;;13.05;3.47;;;;;;;9.46;85.64;101456.88;4990765;28;20464;-46
2021/10/22 10:42:34;;;;;;;12.98;3.75;;;;;;;9.38;85.28;101467.09;4992292;28;20043;-46
2021/10/22 10:45:25;;;;;;;8.95;3.25;;;;;;;9.36;85.77;101469.22;4994153;28;20490;-45
2021/10/22 10:48:02;;;;;;;16.50;3.88;;;;;;;9.31;86.24;101471.03;4994080;28;20050;-46
2021/10/22 10:53:45;;;;;;;17.77;3.38;;;;;;;9.27;87.75;101475.31;4972914;28;20047;-43
2021/10/22 10:56:23;;;;;;;17.08;4.07;;;;;;;9.25;88.43;101494.56;4973145;28;20106;-46
2021/10/22 10:58:50;;;;;;;14.95;3.45;;;;;;;9.25;88.17;101480.97;4965584;28;20058;-46
2021/10/22 11:01:30;;;;;;;15.75;3.42;;;;;;;9.26;88.33;101479.91;4970906;28;20120;-43
2021/10/22 11:03:58;;;;;;;11.35;3.72;;;;;;;9.27;88.46;101476.13;4970153;28;20067;-44
2021/10/22 11:06:44;;;;;;;12.63;3.60;;;;;;;9.28;88.89;101483.19;4971521;28;20042;-51
2021/10/22 11:09:16;;;;;;;13.18;3.75;;;;;;;9.31;88.63;101477.28;4961156;28;20074;-44
2021/10/22 11:12:00;;;;;;;37.35;15.70;;;;;;;9.37;88.75;101470.88;4944552;28;20051;-46
2021/10/22 11:14:42;;;;;;;53.40;24.58;;;;;;;9.49;88.88;101478.16;4972195;28;20452;-44
2021/10/22 11:17:11;;;;;;;26.80;11.52;;;;;;;9.54;89.39;101481.78;4970533;28;20042;-46
2021/10/22 11:19:40;;;;;;;85.50;41.83;;;;;;;9.60;89.65;101496.31;4968270;28;20055;-46
2021/10/22 11:22:23;;;;;;;101.63;48.88;;;;;;;9.66;89.72;101483.63;4967457;28;20445;-47
2021/10/22 11:24:51;;;;;;;214.48;116.97;;;;;;;9.88;91.57;101486.44;4949535;28;20107;-46
2021/10/22 11:27:22;;;;;;;130.73;68.72;;;;;;;9.95;90.60;101489.81;4972337;28;20051;-47
2021/10/22 11:29:52;;;;;;;15.52;4.50;;;;;;;9.93;89.49;101494.69;4983368;28;20054;-44
2021/10/22 11:32:25;;;;;;;66.28;28.60;;;;;;;9.99;89.23;101488.25;5008550;28;20046;-43
2021/10/22 11:34:54;;;;;;;231.82;117.97;;;;;;;10.04;89.65;101496.50;4992890;28;20069;-44
2021/10/22 11:37:35;;;;;;;11.48;3.30;;;;;;;9.99;88.91;101494.53;4994070;28;20138;-47
2021/10/22 11:40:06;;;;;;;14.23;4.80;;;;;;;10.10;89.60;101503.69;4994292;28;20168;-45
2021/10/22 11:42:36;;;;;;;38.28;17.20;;;;;;;10.06;88.90;101499.00;5008617;28;20117;-45
2021/10/22 11:45:10;;;;;;;63.88;31.48;;;;;;;10.14;88.72;101501.28;4993431;28;20046;-47